Time;durP1;ratioP1;P1;durP2;ratioP2;P2;SDS_P1;SDS_P2;PMS_P1;PMS_P2;Temp;Humidity;BMP_temperature;BMP_pressure;BME280_temperature;BME280_humidity;BME280_pressure;Samples;Min_cycle;Max_cycle;Signal;HPM_P1;HPM_P2
2021/05/30 00:00:39;;;;;;;3.78;1.73;;;11.40;70.30;;;;;;5033134;28;20033;-74
2021/05/30 00:03:05;;;;;;;4.60;2.33;;;11.40;70.50;;;;;;5032450;28;20045;-74
2021/05/30 00:05:32;;;;;;;3.33;2.00;;;11.30;70.90;;;;;;5043271;28;20475;-74
2021/05/30 00:07:58;;;;;;;4.00;1.92;;;11.20;71.50;;;;;;5034447;28;20036;-74
2021/05/30 00:10:26;;;;;;;3.53;2.28;;;11.10;71.90;;;;;;5032636;28;20044;-74
2021/05/30 00:12:54;;;;;;;3.55;1.90;;;11.00;72.60;;;;;;5052726;28;20382;-74
2021/05/30 00:15:20;;;;;;;3.72;2.30;;;10.90;73.00;;;;;;5050264;28;20036;-74
2021/05/30 00:17:46;;;;;;;2.72;2.10;;;10.90;74.00;;;;;;5051531;28;20025;-75
2021/05/30 00:20:13;;;;;;;2.97;2.35;;;10.90;74.10;;;;;;5049657;28;20032;-74
2021/05/30 00:22:40;;;;;;;3.63;2.25;;;10.80;74.60;;;;;;5050501;28;20045;-74
2021/05/30 00:25:07;;;;;;;4.47;2.65;;;10.80;74.90;;;;;;5033578;28;20052;-74
2021/05/30 00:27:33;;;;;;;3.67;2.70;;;10.80;75.40;;;;;;5049565;28;20378;-76
2021/05/30 00:30:00;;;;;;;3.63;2.10;;;10.70;75.90;;;;;;5033262;28;20029;-74
2021/05/30 00:32:27;;;;;;;4.00;2.85;;;10.80;76.20;;;;;;5051572;28;20052;-75
2021/05/30 00:34:54;;;;;;;4.75;2.60;;;10.80;76.40;;;;;;5048094;28;20391;-75
2021/05/30 00:37:21;;;;;;;4.07;2.50;;;10.90;76.40;;;;;;5059370;28;20045;-78
2021/05/30 00:39:47;;;;;;;4.80;2.70;;;10.90;76.50;;;;;;5068670;28;20040;-76
2021/05/30 00:42:14;;;;;;;4.63;2.75;;;10.90;76.50;;;;;;5048463;28;20045;-75
2021/05/30 00:44:40;;;;;;;6.03;2.95;;;10.90;76.60;;;;;;5051295;28;20036;-75
2021/05/30 00:47:07;;;;;;;3.78;2.70;;;10.80;77.00;;;;;;5051206;28;20033;-75
2021/05/30 00:49:33;;;;;;;6.78;3.10;;;10.80;77.00;;;;;;5032033;28;20048;-75
2021/05/30 00:51:59;;;;;;;4.40;3.03;;;10.80;77.50;;;;;;5047238;28;20367;-75
2021/05/30 00:54:26;;;;;;;8.57;3.45;;;10.70;78.10;;;;;;5036089;28;20359;-75
2021/05/30 00:56:53;;;;;;;4.47;2.97;;;10.60;79.00;;;;;;5038199;28;20049;-75
2021/05/30 00:59:19;;;;;;;3.83;2.80;;;10.50;80.60;;;;;;5054505;28;20466;-75
2021/05/30 01:01:47;;;;;;;6.28;3.45;;;10.40;81.30;;;;;;5055052;28;20055;-74
2021/05/30 01:04:14;;;;;;;5.10;3.08;;;10.40;83.30;;;;;;5053690;28;20398;-75
2021/05/30 01:06:41;;;;;;;4.65;3.25;;;10.30;84.70;;;;;;5054710;28;20033;-74
2021/05/30 01:09:07;;;;;;;6.22;3.97;;;10.10;85.70;;;;;;5045862;28;20394;-74
2021/05/30 01:11:34;;;;;;;6.18;3.72;;;10.10;86.70;;;;;;5052093;28;20044;-74
2021/05/30 01:14:02;;;;;;;5.05;3.53;;;10.00;88.90;;;;;;5054565;28;20037;-75
2021/05/30 01:16:28;;;;;;;5.50;3.97;;;10.00;89.50;;;;;;5054346;28;20048;-76
2021/05/30 01:18:59;;;;;;;6.43;4.05;;;9.90;90.40;;;;;;5054720;28;20029;-74
2021/05/30 01:21:27;;;;;;;;;;;9.80;91.30;;;;;;5054755;28;20040;-73
2021/05/30 01:23:56;;;;;;;6.35;3.88;;;9.70;92.60;;;;;;5053902;28;19916;-73
2021/05/30 01:26:24;;;;;;;5.95;4.05;;;9.70;93.80;;;;;;5054024;28;20089;-73
2021/05/30 01:28:51;;;;;;;7.68;3.88;;;9.60;95.10;;;;;;5031902;28;20048;-76
2021/05/30 01:31:17;;;;;;;4.80;3.83;;;9.50;96.60;;;;;;5035521;28;20332;-74
2021/05/30 01:33:44;;;;;;;6.38;4.95;;;9.40;98.00;;;;;;5018152;28;20402;-73
2021/05/30 01:36:11;;;;;;;5.65;4.05;;;9.40;99.10;;;;;;5040839;28;20041;-73
2021/05/30 01:38:37;;;;;;;6.57;4.32;;;9.30;99.90;;;;;;5054147;28;20029;-73
2021/05/30 01:41:05;;;;;;;6.90;4.75;;;9.40;99.90;;;;;;5053746;28;20040;-74
2021/05/30 01:43:31;;;;;;;6.10;4.68;;;9.40;99.90;;;;;;5035202;28;20376;-73
2021/05/30 01:45:59;;;;;;;5.35;4.43;;;9.40;99.90;;;;;;5044584;28;20033;-73
2021/05/30 01:48:26;;;;;;;7.22;5.30;;;9.40;99.90;;;;;;5052609;28;20044;-74
2021/05/30 01:50:53;;;;;;;7.68;4.70;;;9.30;99.90;;;;;;5054943;28;20045;-73
2021/05/30 01:53:25;;;;;;;9.00;5.47;;;9.30;99.90;;;;;;5052323;28;20079;-76
2021/05/30 01:56:55;;;;;;;7.50;5.57;;;9.20;99.90;;;;;;5054120;28;20033;-74
2021/05/30 01:58:43;;;;;;;6.63;5.40;;;9.10;99.90;;;;;;5043615;28;20040;-73
2021/05/30 02:01:14;;;;;;;8.73;6.30;;;9.10;99.90;;;;;;5053701;28;20382;-73
2021/05/30 02:03:43;;;;;;;8.57;5.88;;;9.10;99.90;;;;;;5053855;28;20033;-74
2021/05/30 02:06:13;;;;;;;7.97;6.05;;;9.10;99.90;;;;;;5053778;28;20041;-73
2021/05/30 02:08:40;;;;;;;10.65;6.40;;;9.00;99.90;;;;;;5047042;28;20402;-74
2021/05/30 02:11:08;;;;;;;9.63;6.25;;;8.90;99.90;;;;;;5035195;28;20038;-73
2021/05/30 02:13:35;;;;;;;9.30;6.63;;;8.90;99.90;;;;;;5045691;28;20029;-77
2021/05/30 02:16:02;;;;;;;9.32;6.82;;;8.90;99.90;;;;;;5053492;28;20426;-73
2021/05/30 02:18:28;;;;;;;10.45;6.90;;;8.80;99.90;;;;;;5039039;28;20030;-74
2021/05/30 02:20:54;;;;;;;8.88;7.20;;;8.80;99.90;;;;;;5053923;28;20036;-73
2021/05/30 02:23:21;;;;;;;10.60;6.82;;;8.70;99.90;;;;;;5044167;28;20036;-74
2021/05/30 02:25:47;;;;;;;11.95;7.35;;;8.70;99.90;;;;;;5036915;28;20387;-73
2021/05/30 02:28:13;;;;;;;11.48;7.68;;;8.70;99.90;;;;;;5053223;28;20040;-73
2021/05/30 02:30:39;;;;;;;10.60;7.07;;;8.70;99.90;;;;;;5046814;28;20421;-73
2021/05/30 02:33:05;;;;;;;9.85;6.72;;;8.70;99.90;;;;;;5036492;28;20041;-73
2021/05/30 02:35:32;;;;;;;8.88;7.10;;;8.60;99.90;;;;;;5052881;28;20032;-74
2021/05/30 02:37:58;;;;;;;9.02;6.65;;;8.60;99.90;;;;;;5054554;28;20405;-74
2021/05/30 02:40:24;;;;;;;10.30;7.05;;;8.60;99.90;;;;;;5041317;28;20052;-73
2021/05/30 02:42:51;;;;;;;9.15;6.80;;;8.50;99.90;;;;;;5041402;28;20025;-74
2021/05/30 02:45:17;;;;;;;11.80;7.60;;;8.50;99.90;;;;;;5047088;28;20032;-74
2021/05/30 02:47:45;;;;;;;11.13;8.45;;;8.40;99.90;;;;;;5052829;28;20052;-74
2021/05/30 02:50:11;;;;;;;10.90;8.00;;;8.40;99.90;;;;;;5051539;28;20040;-74
2021/05/30 02:52:38;;;;;;;10.07;7.88;;;8.40;99.90;;;;;;5050545;28;20084;-74
2021/05/30 02:55:05;;;;;;;13.57;8.60;;;8.40;99.90;;;;;;5036162;28;20047;-74
2021/05/30 02:57:31;;;;;;;14.02;8.57;;;8.30;99.90;;;;;;5052235;28;20386;-74
2021/05/30 02:59:57;;;;;;;12.45;8.48;;;8.30;99.90;;;;;;5051445;28;20486;-74
2021/05/30 03:02:23;;;;;;;12.57;8.65;;;8.30;99.90;;;;;;5039028;28;20049;-74
2021/05/30 03:04:49;;;;;;;15.50;9.05;;;8.20;99.90;;;;;;5051962;28;20041;-74
2021/05/30 03:07:16;;;;;;;12.73;8.95;;;8.20;99.90;;;;;;5051714;28;20029;-75
2021/05/30 03:09:42;;;;;;;13.35;8.73;;;8.20;99.90;;;;;;5052769;28;20467;-74
2021/05/30 03:12:08;;;;;;;14.68;9.48;;;8.10;99.90;;;;;;5044106;28;20044;-74
2021/05/30 03:14:34;;;;;;;12.30;8.23;;;8.10;99.90;;;;;;5035370;28;20025;-74
2021/05/30 03:17:01;;;;;;;11.35;8.05;;;8.00;99.90;;;;;;5049293;28;20057;-74
2021/05/30 03:19:27;;;;;;;13.57;9.10;;;8.00;99.90;;;;;;5040440;28;20040;-74
2021/05/30 03:21:53;;;;;;;13.30;8.65;;;7.90;99.90;;;;;;5020230;28;20044;-74
2021/05/30 03:24:19;;;;;;;13.52;9.15;;;7.90;99.90;;;;;;5037238;28;20040;-74
2021/05/30 03:26:46;;;;;;;13.77;9.57;;;7.90;99.90;;;;;;5052095;28;20038;-74
2021/05/30 03:29:12;;;;;;;13.48;9.00;;;7.80;99.90;;;;;;5052458;28;20037;-74
2021/05/30 03:31:38;;;;;;;14.93;9.85;;;7.80;99.90;;;;;;5051826;28;20044;-74
2021/05/30 03:34:04;;;;;;;14.70;9.80;;;7.80;99.90;;;;;;5051865;28;20041;-74
2021/05/30 03:36:32;;;;;;;14.38;9.85;;;7.80;99.90;;;;;;5051638;28;20037;-74
2021/05/30 03:39:04;;;;;;;17.48;10.40;;;7.90;99.90;;;;;;5044567;28;20049;-74
2021/05/30 03:41:37;;;;;;;14.93;9.77;;;7.90;99.90;;;;;;5032877;28;20040;-74
2021/05/30 03:44:05;;;;;;;14.82;9.63;;;7.90;99.90;;;;;;5036604;28;20025;-75
2021/05/30 03:46:32;;;;;;;16.13;10.02;;;8.00;99.90;;;;;;5039054;28;20052;-74
2021/05/30 03:48:58;;;;;;;15.25;10.55;;;8.00;99.90;;;;;;5052021;28;20029;-77
2021/05/30 03:51:24;;;;;;;13.25;9.48;;;8.00;99.90;;;;;;5050630;28;20055;-75
2021/05/30 03:53:51;;;;;;;13.52;10.23;;;7.90;99.90;;;;;;5038869;28;20470;-74
2021/05/30 03:56:17;;;;;;;15.68;9.80;;;8.00;99.90;;;;;;5034038;28;20045;-74
2021/05/30 03:58:43;;;;;;;16.20;10.80;;;7.90;99.90;;;;;;5051866;28;20095;-74
2021/05/30 04:01:09;;;;;;;15.18;10.82;;;7.90;99.90;;;;;;5051190;28;20045;-74
2021/05/30 04:03:36;;;;;;;17.38;10.82;;;8.00;99.90;;;;;;5051118;28;20033;-75
2021/05/30 04:06:02;;;;;;;14.45;9.43;;;8.00;99.90;;;;;;5050516;28;20037;-74
2021/05/30 04:08:28;;;;;;;12.82;9.75;;;8.00;99.90;;;;;;5051083;28;20041;-74
2021/05/30 04:10:55;;;;;;;13.82;9.77;;;8.00;99.90;;;;;;5044972;28;20037;-74
2021/05/30 04:13:21;;;;;;;14.32;11.57;;;8.10;99.90;;;;;;5031464;28;20041;-74
2021/05/30 04:15:47;;;;;;;14.30;9.48;;;8.10;99.90;;;;;;5033114;28;20037;-74
2021/05/30 04:18:13;;;;;;;16.63;11.40;;;8.10;99.90;;;;;;5037597;28;20036;-74
2021/05/30 04:20:39;;;;;;;16.17;10.32;;;8.20;99.90;;;;;;5053283;28;20383;-74
2021/05/30 04:23:06;;;;;;;12.57;9.30;;;8.50;99.90;;;;;;5052507;28;20033;-75
2021/05/30 04:25:32;;;;;;;11.23;9.07;;;9.30;99.90;;;;;;5066139;28;20039;-74
2021/05/30 04:27:58;;;;;;;12.70;8.68;;;9.90;99.90;;;;;;5069462;28;20026;-74
2021/05/30 04:30:24;;;;;;;12.32;8.05;;;10.00;99.90;;;;;;5059920;28;20048;-75
2021/05/30 04:32:51;;;;;;;9.05;7.55;;;10.50;99.90;;;;;;5051047;28;20406;-75
2021/05/30 04:35:17;;;;;;;9.48;7.28;;;11.20;99.90;;;;;;5050928;28;20041;-76
2021/05/30 04:37:43;;;;;;;13.05;7.30;;;11.50;99.90;;;;;;5051132;28;20112;-75
2021/05/30 04:40:10;;;;;;;7.82;6.50;;;12.10;97.30;;;;;;5033431;28;20478;-75
2021/05/30 04:42:37;;;;;;;8.70;6.90;;;12.20;95.20;;;;;;5042948;28;20064;-75
2021/05/30 04:45:05;;;;;;;9.43;6.93;;;12.80;93.10;;;;;;5032524;28;20041;-75
2021/05/30 04:47:32;;;;;;;8.68;7.13;;;12.80;91.50;;;;;;5047745;28;20471;-75
2021/05/30 04:49:59;;;;;;;8.43;6.70;;;13.00;90.40;;;;;;5032522;28;20030;-75
2021/05/30 04:52:25;;;;;;;9.00;6.90;;;12.80;90.50;;;;;;5033697;28;20537;-76
2021/05/30 04:54:51;;;;;;;7.40;6.60;;;13.10;89.50;;;;;;5051239;28;20044;-75
2021/05/30 04:57:17;;;;;;;8.13;6.63;;;13.30;88.00;;;;;;5041877;28;20048;-77
2021/05/30 04:59:44;;;;;;;6.70;6.00;;;13.70;85.60;;;;;;5032370;28;20459;-76
2021/05/30 05:02:10;;;;;;;7.32;6.22;;;13.80;84.20;;;;;;5037530;28;20037;-76
2021/05/30 05:04:36;;;;;;;7.10;6.00;;;14.00;83.20;;;;;;5050456;28;20387;-75
2021/05/30 05:07:02;;;;;;;8.73;6.63;;;13.60;83.50;;;;;;5035246;28;20352;-76
2021/05/30 05:09:28;;;;;;;8.10;6.60;;;13.50;84.60;;;;;;5051844;28;20040;-76
2021/05/30 05:11:55;;;;;;;7.50;5.95;;;13.90;83.40;;;;;;5034635;28;20040;-76
2021/05/30 05:14:21;;;;;;;9.10;6.43;;;14.40;81.10;;;;;;5046410;28;20378;-76
2021/05/30 05:16:47;;;;;;;7.50;6.32;;;14.70;79.60;;;;;;5046005;28;20104;-75
2021/05/30 05:19:13;;;;;;;6.55;5.85;;;14.70;78.10;;;;;;5031352;28;21764;-75
2021/05/30 05:21:39;;;;;;;8.00;5.85;;;14.60;78.70;;;;;;5032577;28;20030;-75
2021/05/30 05:24:06;;;;;;;7.28;5.85;;;14.40;79.30;;;;;;5050728;28;20025;-74
2021/05/30 05:26:33;;;;;;;9.13;6.85;;;14.90;78.00;;;;;;5045211;28;20041;-75
2021/05/30 05:28:59;;;;;;;5.95;5.35;;;14.80;77.70;;;;;;5039489;28;20454;-75
2021/05/30 05:31:25;;;;;;;7.05;5.82;;;15.00;76.90;;;;;;5050369;28;20463;-76
2021/05/30 05:33:51;;;;;;;6.43;5.38;;;15.00;76.40;;;;;;5050123;28;20056;-75
2021/05/30 05:36:19;;;;;;;6.93;5.82;;;15.00;76.10;;;;;;5033414;28;20045;-75
2021/05/30 05:38:46;;;;;;;5.95;5.15;;;15.70;73.40;;;;;;5038837;28;20026;-76
2021/05/30 05:41:12;;;;;;;9.40;6.15;;;15.90;71.50;;;;;;5035615;28;20033;-79
2021/05/30 05:43:38;;;;;;;8.05;5.30;;;15.60;71.90;;;;;;5021670;28;20254;-76
2021/05/30 05:46:04;;;;;;;6.85;5.28;;;15.20;73.10;;;;;;5042593;28;20356;-76
2021/05/30 05:48:31;;;;;;;7.43;5.03;;;14.90;74.30;;;;;;5035366;28;20030;-76
2021/05/30 05:50:57;;;;;;;6.78;4.95;;;15.40;72.90;;;;;;5051331;28;20045;-75
2021/05/30 05:53:23;;;;;;;7.00;4.78;;;16.20;70.10;;;;;;5053999;28;20049;-75
2021/05/30 05:55:49;;;;;;;5.78;5.15;;;17.50;66.30;;;;;;5054196;28;20036;-76
2021/05/30 05:58:16;;;;;;;6.28;5.25;;;17.30;65.80;;;;;;5039100;28;20029;-75
2021/05/30 06:00:42;;;;;;;7.20;5.10;;;17.20;66.50;;;;;;5052933;28;20029;-76
2021/05/30 06:03:08;;;;;;;5.93;4.88;;;17.60;64.80;;;;;;5037663;28;20029;-75
2021/05/30 06:05:34;;;;;;;5.78;3.83;;;17.30;66.50;;;;;;5048778;28;20466;-74
2021/05/30 06:08:02;;;;;;;6.32;4.45;;;18.20;62.50;;;;;;5035864;28;20405;-75
2021/05/30 06:10:28;;;;;;;7.25;4.10;;;18.40;61.10;;;;;;5034855;28;20029;-75
2021/05/30 06:13:11;;;;;;;3.80;3.47;;;18.50;60.00;;;;;;5051064;28;20397;-75
2021/05/30 06:15:41;;;;;;;4.25;3.50;;;18.40;60.40;;;;;;5034931;28;20045;-75
2021/05/30 06:18:11;;;;;;;4.50;3.53;;;18.80;58.90;;;;;;5036313;28;20048;-75
2021/05/30 06:20:39;;;;;;;4.97;3.55;;;18.50;58.90;;;;;;5052851;28;20375;-75
2021/05/30 06:23:06;;;;;;;5.75;3.80;;;18.50;59.40;;;;;;5047729;28;20471;-75
2021/05/30 06:25:32;;;;;;;4.53;3.47;;;18.40;58.80;;;;;;5044953;28;20025;-75
2021/05/30 06:28:00;;;;;;;3.95;3.53;;;19.10;57.10;;;;;;5046863;28;20034;-75
2021/05/30 06:30:28;;;;;;;4.30;3.63;;;19.20;57.50;;;;;;5034509;28;20026;-75
2021/05/30 06:32:55;;;;;;;4.53;3.58;;;18.70;58.20;;;;;;5039656;28;20054;-75
2021/05/30 06:35:21;;;;;;;5.35;3.95;;;19.10;57.50;;;;;;5053017;28;20474;-75
2021/05/30 06:37:48;;;;;;;3.72;2.97;;;19.30;56.70;;;;;;5053044;28;20044;-78
2021/05/30 06:40:15;;;;;;;3.85;3.45;;;19.60;55.90;;;;;;5034965;28;20041;-75
2021/05/30 06:42:41;;;;;;;3.55;3.25;;;19.70;56.80;;;;;;5045970;28;20104;-75
2021/05/30 06:45:08;;;;;;;4.95;3.42;;;20.80;54.80;;;;;;5036070;28;20033;-75
2021/05/30 06:47:34;;;;;;;3.83;3.05;;;21.10;53.40;;;;;;5051191;28;20363;-75
2021/05/30 06:50:00;;;;;;;3.85;3.28;;;20.40;54.20;;;;;;5052973;28;20382;-74
2021/05/30 06:52:27;;;;;;;4.68;3.58;;;19.30;55.90;;;;;;5051405;28;20032;-76
2021/05/30 06:54:53;;;;;;;4.45;3.55;;;19.80;55.40;;;;;;5052951;28;20040;-78
2021/05/30 06:57:19;;;;;;;5.68;4.03;;;19.60;55.20;;;;;;5035574;28;20401;-76
2021/05/30 06:59:47;;;;;;;4.78;3.95;;;19.00;56.70;;;;;;5052888;28;20044;-79
2021/05/30 07:02:15;;;;;;;4.03;3.60;;;19.10;56.60;;;;;;5050967;28;20048;-75
2021/05/30 07:04:42;;;;;;;4.20;3.80;;;18.30;58.20;;;;;;5044155;28;20053;-74
2021/05/30 07:07:08;;;;;;;4.65;3.63;;;18.40;58.40;;;;;;5034361;28;20044;-75
2021/05/30 07:09:34;;;;;;;4.18;3.67;;;18.60;57.30;;;;;;5033808;28;20462;-76
2021/05/30 07:12:01;;;;;;;5.00;4.50;;;19.10;56.70;;;;;;5037477;28;20037;-77
2021/05/30 07:14:27;;;;;;;5.43;4.57;;;18.40;59.20;;;;;;5051800;28;20051;-77
2021/05/30 07:16:56;;;;;;;4.50;4.07;;;18.00;59.70;;;;;;5033912;28;20033;-76
2021/05/30 07:19:23;;;;;;;5.40;4.65;;;17.90;60.50;;;;;;5050056;28;20029;-77
2021/05/30 07:21:50;;;;;;;5.43;4.25;;;18.00;60.20;;;;;;5047567;28;20038;-76
2021/05/30 07:24:16;;;;;;;5.57;4.35;;;18.70;58.20;;;;;;5033765;28;20485;-77
2021/05/30 07:26:43;;;;;;;6.78;4.30;;;18.90;58.10;;;;;;5035119;28;20037;-76
2021/05/30 07:29:10;;;;;;;4.50;3.72;;;19.30;57.60;;;;;;5053358;28;20398;-77
2021/05/30 07:31:36;;;;;;;4.40;3.90;;;19.50;55.80;;;;;;5048526;28;20418;-76
2021/05/30 07:34:02;;;;;;;4.60;3.72;;;19.10;56.60;;;;;;5015667;28;20050;-76
2021/05/30 07:36:29;;;;;;;4.78;3.95;;;19.80;56.20;;;;;;5045384;28;20060;-75
2021/05/30 07:38:56;;;;;;;4.93;3.60;;;20.40;54.70;;;;;;5049130;28;20033;-76
2021/05/30 07:41:23;;;;;;;3.20;2.88;;;22.50;53.30;;;;;;5033067;28;20053;-75
2021/05/30 07:43:50;;;;;;;3.40;3.10;;;23.10;49.70;;;;;;5033347;28;20025;-75
2021/05/30 07:46:16;;;;;;;4.03;3.13;;;22.20;50.60;;;;;;5025830;28;20036;-74
2021/05/30 07:48:42;;;;;;;4.13;2.75;;;22.20;49.20;;;;;;5038217;28;20052;-74
2021/05/30 07:51:09;;;;;;;3.97;2.88;;;22.30;48.80;;;;;;5050873;28;20035;-75
2021/05/30 07:53:35;;;;;;;3.85;2.85;;;21.90;47.80;;;;;;5045030;28;20038;-74
2021/05/30 07:56:02;;;;;;;4.25;2.83;;;21.60;49.20;;;;;;5018651;28;20029;-75
2021/05/30 07:58:28;;;;;;;5.53;2.70;;;20.60;50.80;;;;;;5043403;28;20033;-75
2021/05/30 08:00:54;;;;;;;3.92;2.83;;;21.10;50.20;;;;;;5051028;28;20033;-74
2021/05/30 08:03:22;;;;;;;4.85;2.90;;;22.10;48.40;;;;;;5035455;28;20049;-74
2021/05/30 08:05:49;;;;;;;2.83;2.42;;;21.80;48.50;;;;;;5052285;28;20052;-74
2021/05/30 08:08:16;;;;;;;2.60;1.90;;;21.90;49.40;;;;;;5067644;28;20045;-76
2021/05/30 08:10:43;;;;;;;3.85;2.53;;;23.00;44.60;;;;;;5049110;28;20478;-74
2021/05/30 08:13:09;;;;;;;3.58;2.75;;;22.30;45.20;;;;;;5052125;28;20041;-74
2021/05/30 08:15:35;;;;;;;3.63;3.00;;;22.10;45.20;;;;;;5050879;28;20032;-74
2021/05/30 08:18:01;;;;;;;3.70;3.00;;;22.50;44.70;;;;;;5051447;28;20036;-74
2021/05/30 08:20:29;;;;;;;3.05;2.45;;;23.00;45.40;;;;;;5050740;28;20378;-75
2021/05/30 08:22:56;;;;;;;3.20;2.45;;;22.40;45.60;;;;;;5034554;28;20048;-74
2021/05/30 08:25:22;;;;;;;3.28;2.42;;;22.40;45.70;;;;;;5051323;28;20047;-78
2021/05/30 08:27:49;;;;;;;3.47;2.53;;;22.80;45.40;;;;;;5034201;28;20394;-75
2021/05/30 08:30:18;;;;;;;3.08;2.45;;;23.00;45.00;;;;;;5051362;28;20040;-74
2021/05/30 08:32:44;;;;;;;3.90;2.63;;;22.70;44.40;;;;;;5050595;28;20064;-74
2021/05/30 08:35:11;;;;;;;3.58;2.63;;;21.90;44.10;;;;;;5051085;28;20505;-75
2021/05/30 08:37:41;;;;;;;5.18;2.33;;;22.60;44.60;;;;;;5050822;28;20033;-75
2021/05/30 08:40:08;;;;;;;3.22;2.53;;;22.80;45.00;;;;;;5051186;28;20346;-74
2021/05/30 08:42:34;;;;;;;4.13;2.45;;;23.60;43.80;;;;;;5046417;28;20040;-75
2021/05/30 08:45:01;;;;;;;4.72;2.60;;;23.30;44.20;;;;;;5039457;28;20041;-77
2021/05/30 08:47:27;;;;;;;5.68;2.63;;;21.40;44.90;;;;;;5050628;28;20045;-75
2021/05/30 08:49:53;;;;;;;5.65;2.60;;;21.10;46.30;;;;;;5044563;28;20040;-75
2021/05/30 08:52:19;;;;;;;3.65;2.28;;;20.70;46.70;;;;;;5046573;28;20382;-74
2021/05/30 08:54:46;;;;;;;3.30;2.30;;;20.90;46.60;;;;;;5051160;28;20386;-75
2021/05/30 08:57:12;;;;;;;2.10;1.58;;;21.70;44.60;;;;;;5050601;28;20037;-75
2021/05/30 08:59:41;;;;;;;3.67;2.00;;;21.20;41.90;;;;;;5038915;28;20037;-74
2021/05/30 09:02:10;;;;;;;3.10;1.88;;;20.90;43.40;;;;;;5044548;28;20052;-74
2021/05/30 09:04:49;;;;;;;3.67;2.30;;;21.40;44.20;;;;;;5050339;28;20036;-73
2021/05/30 09:07:16;;;;;;;2.47;2.00;;;22.70;43.30;;;;;;5051308;28;20048;-73
2021/05/30 09:09:47;;;;;;;3.47;1.58;;;22.00;41.80;;;;;;5050747;28;20039;-75
2021/05/30 09:12:28;;;;;;;3.55;2.17;;;22.30;40.70;;;;;;5053904;28;20365;-73
2021/05/30 09:14:56;;;;;;;2.95;1.65;;;22.50;40.30;;;;;;5053807;28;20038;-74
2021/05/30 09:17:26;;;;;;;2.08;1.63;;;22.40;40.80;;;;;;5038022;28;20025;-76
2021/05/30 09:19:54;;;;;;;3.20;2.28;;;21.70;40.60;;;;;;5053531;28;20033;-76
2021/05/30 09:22:27;;;;;;;2.90;1.67;;;22.20;41.00;;;;;;5054484;28;20045;-79
2021/05/30 09:25:15;;;;;;;2.08;1.42;;;21.30;40.80;;;;;;5035344;28;20375;-75
2021/05/30 09:27:59;;;;;;;2.42;1.77;;;21.80;40.90;;;;;;5035942;28;20029;-74
2021/05/30 09:30:30;;;;;;;2.63;1.70;;;21.90;42.00;;;;;;5035558;28;20514;-74
2021/05/30 09:33:03;;;;;;;2.25;1.70;;;22.40;39.90;;;;;;5053155;28;20505;-75
2021/05/30 09:35:44;;;;;;;2.42;1.38;;;21.70;40.60;;;;;;5036859;28;20037;-73
2021/05/30 09:38:15;;;;;;;2.38;1.75;;;21.80;40.10;;;;;;5048330;28;20048;-74
2021/05/30 09:40:56;;;;;;;3.35;2.05;;;22.70;40.10;;;;;;5047813;28;20040;-76
2021/05/30 09:43:48;;;;;;;2.95;2.05;;;22.10;39.90;;;;;;5054232;28;20033;-74
2021/05/30 09:46:19;;;;;;;5.22;1.80;;;21.60;41.30;;;;;;5054369;28;20025;-75
2021/05/30 09:48:45;;;;;;;3.72;1.90;;;22.50;40.50;;;;;;5053298;28;20094;-76
2021/05/30 09:51:33;;;;;;;3.45;1.88;;;21.90;40.70;;;;;;5035213;28;20360;-75
2021/05/30 09:54:13;;;;;;;3.53;1.63;;;22.50;41.40;;;;;;5035499;28;20037;-75
2021/05/30 09:56:47;;;;;;;3.72;1.92;;;22.50;39.90;;;;;;5046719;28;20025;-74
2021/05/30 09:59:15;;;;;;;2.60;1.60;;;22.60;40.60;;;;;;5044484;28;20033;-76
2021/05/30 10:01:56;;;;;;;3.17;1.63;;;21.90;40.10;;;;;;5053979;28;20454;-78
2021/05/30 10:04:24;;;;;;;2.58;1.27;;;21.50;40.60;;;;;;5054271;28;20029;-75
2021/05/30 10:06:51;;;;;;;3.00;1.70;;;21.80;41.10;;;;;;5052553;28;20037;-75
2021/05/30 10:09:17;;;;;;;2.25;1.52;;;22.20;40.50;;;;;;5052765;28;20036;-74
2021/05/30 10:11:44;;;;;;;3.22;2.20;;;21.50;40.00;;;;;;5053364;28;20059;-74
2021/05/30 10:14:11;;;;;;;1.85;1.55;;;22.30;40.40;;;;;;5054382;28;20493;-74
2021/05/30 10:16:37;;;;;;;4.60;2.03;;;22.50;39.90;;;;;;5052804;28;20037;-75
2021/05/30 10:19:14;;;;;;;3.70;1.67;;;22.30;41.10;;;;;;5053358;28;20049;-74
2021/05/30 10:21:50;;;;;;;2.00;1.52;;;21.90;40.30;;;;;;5038611;28;20038;-77
2021/05/30 10:24:20;;;;;;;3.53;1.30;;;20.90;39.90;;;;;;5045738;28;20124;-75
2021/05/30 10:27:07;;;;;;;1.45;1.15;;;20.50;39.80;;;;;;5053261;28;20032;-73
2021/05/30 10:29:33;;;;;;;2.33;1.85;;;21.00;41.70;;;;;;5035208;28;20360;-74
2021/05/30 10:32:18;;;;;;;3.47;1.60;;;21.40;40.40;;;;;;5048865;28;20047;-77
2021/05/30 10:35:07;;;;;;;1.67;1.20;;;21.40;40.40;;;;;;5034357;28;20037;-75
2021/05/30 10:37:43;;;;;;;2.85;1.77;;;21.20;40.80;;;;;;5021473;28;20045;-77
2021/05/30 10:40:22;;;;;;;2.55;1.63;;;21.00;41.30;;;;;;5034839;28;20029;-75
2021/05/30 10:43:13;;;;;;;2.75;1.65;;;20.40;42.30;;;;;;5039353;28;20040;-76
2021/05/30 10:45:42;;;;;;;2.28;1.70;;;20.70;43.00;;;;;;5044596;28;20040;-74
2021/05/30 10:48:12;;;;;;;2.13;1.52;;;21.00;42.20;;;;;;5034769;28;20467;-74
2021/05/30 10:53:27;;;;;;;;;;;20.10;41.80;;;;;;5044917;28;20055;-73
2021/05/30 10:56:13;;;;;;;2.97;1.50;;;20.50;42.70;;;;;;5053351;28;19932;-73
2021/05/30 10:58:43;;;;;;;3.05;1.60;;;21.10;41.40;;;;;;5035550;28;20037;-75
2021/05/30 11:01:43;;;;;;;2.42;1.63;;;21.30;40.80;;;;;;5046837;28;20041;-75
2021/05/30 11:04:28;;;;;;;2.25;1.70;;;21.20;42.10;;;;;;5031456;28;20049;-75
2021/05/30 11:07:04;;;;;;;2.75;1.50;;;20.80;41.70;;;;;;5026729;28;20410;-73
2021/05/30 11:09:54;;;;;;;1.77;1.33;;;20.80;41.80;;;;;;5019739;28;20041;-74
2021/05/30 11:12:24;;;;;;;3.30;1.50;;;20.90;41.30;;;;;;5037393;28;20356;-75
2021/05/30 11:15:12;;;;;;;2.35;1.80;;;20.60;41.70;;;;;;5051734;28;20053;-75
2021/05/30 11:17:43;;;;;;;2.85;1.90;;;20.50;41.50;;;;;;5050325;28;20047;-74
2021/05/30 11:20:19;;;;;;;3.47;1.33;;;20.80;42.70;;;;;;5035144;28;20056;-76
2021/05/30 11:22:49;;;;;;;3.78;1.77;;;21.10;42.30;;;;;;5044305;28;20049;-75
2021/05/30 11:25:17;;;;;;;3.05;1.70;;;20.60;42.40;;;;;;5033601;28;20044;-75
2021/05/30 11:28:01;;;;;;;2.78;1.83;;;20.50;43.20;;;;;;5033380;28;20036;-77
2021/05/30 11:30:43;;;;;;;3.42;1.58;;;20.00;42.70;;;;;;5033088;28;20026;-79
2021/05/30 11:33:20;;;;;;;3.58;1.60;;;20.30;43.10;;;;;;5043838;28;20395;-73
2021/05/30 11:35:55;;;;;;;2.40;1.63;;;20.80;42.00;;;;;;5039727;28;20025;-72
2021/05/30 11:38:51;;;;;;;5.18;1.55;;;20.60;40.90;;;;;;5052445;28;20041;-73
2021/05/30 11:41:38;;;;;;;3.95;2.70;;;21.50;41.80;;;;;;5035566;28;20037;-73
2021/05/30 11:44:10;;;;;;;4.30;1.92;;;21.40;41.40;;;;;;5043875;28;20044;-72
2021/05/30 11:46:50;;;;;;;3.08;1.92;;;21.20;41.20;;;;;;5043987;28;20051;-72
2021/05/30 11:49:17;;;;;;;2.80;1.70;;;20.70;41.20;;;;;;5051902;28;20477;-72
2021/05/30 11:51:45;;;;;;;2.45;1.80;;;21.20;41.40;;;;;;5050876;28;20048;-72
2021/05/30 11:54:12;;;;;;;2.90;1.85;;;21.90;40.90;;;;;;5050570;28;20052;-74
2021/05/30 11:56:43;;;;;;;1.92;1.70;;;21.30;43.00;;;;;;5069686;28;20398;-74
2021/05/30 11:59:10;;;;;;;2.92;1.80;;;21.10;43.10;;;;;;5044476;28;20367;-76
2021/05/30 12:01:50;;;;;;;4.35;2.22;;;21.40;43.50;;;;;;5046428;28;20041;-73
2021/05/30 12:04:29;;;;;;;3.28;1.73;;;21.40;43.30;;;;;;5037119;28;20074;-75
2021/05/30 12:06:55;;;;;;;3.75;2.22;;;21.60;43.60;;;;;;5051809;28;20033;-74
2021/05/30 12:09:23;;;;;;;2.92;2.13;;;21.10;43.80;;;;;;5051245;28;20037;-74
2021/05/30 12:11:50;;;;;;;3.63;2.53;;;21.00;44.30;;;;;;5032373;28;20046;-75
2021/05/30 12:14:17;;;;;;;3.05;1.98;;;21.20;43.90;;;;;;5046265;28;20048;-74
2021/05/30 12:16:46;;;;;;;2.40;1.75;;;21.40;43.80;;;;;;5033419;28;20045;-75
2021/05/30 12:19:13;;;;;;;3.35;1.80;;;21.60;42.10;;;;;;5043172;28;20037;-75
2021/05/30 12:21:46;;;;;;;4.47;1.85;;;21.20;43.30;;;;;;5036821;28;20064;-77
2021/05/30 12:24:15;;;;;;;3.20;1.92;;;21.40;42.20;;;;;;5038507;28;20410;-76
2021/05/30 12:26:43;;;;;;;2.88;2.13;;;21.00;42.90;;;;;;5046810;28;20029;-75
2021/05/30 12:29:10;;;;;;;2.60;1.80;;;21.10;43.00;;;;;;5036168;28;20032;-74
2021/05/30 12:31:37;;;;;;;3.70;2.25;;;21.30;43.00;;;;;;5051119;28;20068;-74
2021/05/30 12:34:07;;;;;;;3.72;1.80;;;21.20;42.90;;;;;;5051657;28;20045;-77
2021/05/30 12:36:40;;;;;;;2.72;1.88;;;21.50;42.50;;;;;;5044999;28;20052;-75
2021/05/30 12:39:16;;;;;;;4.25;1.60;;;21.30;42.10;;;;;;5033178;28;20032;-77
2021/05/30 12:41:45;;;;;;;2.40;1.70;;;21.40;42.00;;;;;;5047690;28;20385;-74
2021/05/30 12:44:13;;;;;;;3.67;2.38;;;21.10;41.40;;;;;;5049397;28;20044;-75
2021/05/30 12:47:02;;;;;;;2.20;1.90;;;21.60;40.80;;;;;;5036353;28;20041;-75
2021/05/30 12:49:29;;;;;;;3.05;2.20;;;21.70;40.90;;;;;;5055101;28;20044;-75
2021/05/30 12:52:05;;;;;;;4.07;2.00;;;21.80;41.30;;;;;;5057711;28;20025;-74
2021/05/30 12:54:34;;;;;;;4.47;2.20;;;21.80;41.40;;;;;;5039263;28;20049;-77
2021/05/30 12:57:01;;;;;;;3.55;2.05;;;21.70;42.60;;;;;;5057958;28;20028;-75
2021/05/30 12:59:31;;;;;;;2.75;2.17;;;21.60;43.40;;;;;;5057495;28;20454;-75